createdAt,value
2023-12-13T00:01:18.928Z,93458.25
2023-12-13T00:03:45.522Z,93451.53
2023-12-13T00:06:12.048Z,93437.66
2023-12-13T00:08:39.610Z,93432.47
2023-12-13T00:11:07.176Z,93432.03
2023-12-13T00:13:34.776Z,93424.56
2023-12-13T00:16:02.352Z,93427.09
2023-12-13T00:18:29.990Z,93410.53
2023-12-13T00:20:57.531Z,93413.25
2023-12-13T00:23:25.161Z,93421.44
2023-12-13T00:25:53.892Z,93424.56
2023-12-13T00:28:21.406Z,93402.81
2023-12-13T00:30:48.362Z,93417.88
2023-12-13T00:33:14.956Z,93411.69
2023-12-13T00:35:41.660Z,93399.81
2023-12-13T00:38:08.753Z,93401.69
2023-12-13T00:40:36.367Z,93401.50
2023-12-13T00:43:03.932Z,93401.56
2023-12-13T00:45:30.461Z,93396.16
2023-12-13T00:47:57.131Z,93398.22
2023-12-13T00:50:24.727Z,93381.00
2023-12-13T00:52:52.352Z,93371.50
2023-12-13T00:55:18.962Z,93399.88
2023-12-13T00:57:45.555Z,93392.19
2023-12-13T01:00:13.097Z,93405.78
2023-12-13T01:02:39.782Z,93409.63
2023-12-13T01:05:07.294Z,93422.22
2023-12-13T01:07:34.403Z,93412.91
2023-12-13T01:10:01.115Z,93415.41
2023-12-13T01:12:27.666Z,93417.44
2023-12-13T01:14:54.654Z,93423.53
2023-12-13T01:17:22.256Z,93411.13
2023-12-13T01:19:48.916Z,93407.41
2023-12-13T01:22:16.458Z,93399.66
2023-12-13T01:24:44.034Z,93394.97
2023-12-13T01:27:11.640Z,93397.44
2023-12-13T01:29:39.248Z,93407.09
2023-12-13T01:32:06.825Z,93400.78
2023-12-13T01:34:34.520Z,93403.00
2023-12-13T01:37:02.066Z,93407.41
2023-12-13T01:39:29.607Z,93416.25
2023-12-13T01:41:57.207Z,93412.59
2023-12-13T01:44:23.804Z,93418.59
2023-12-13T01:46:50.456Z,93393.75
2023-12-13T01:49:18.113Z,93345.59
2023-12-13T01:51:45.602Z,93329.28
2023-12-13T01:54:12.254Z,93323.25
2023-12-13T01:56:39.802Z,93324.91
2023-12-13T01:59:07.500Z,93344.56
2023-12-13T02:01:35.077Z,93364.94
2023-12-13T02:04:02.583Z,93386.88
2023-12-13T02:06:29.103Z,93378.66
2023-12-13T02:08:55.648Z,93368.41
2023-12-13T02:11:24.545Z,93358.41
2023-12-13T02:13:52.978Z,93352.59
2023-12-13T02:16:20.574Z,93341.25
2023-12-13T02:18:48.232Z,93337.16
2023-12-13T02:21:15.759Z,93343.41
2023-12-13T02:23:43.307Z,93335.19
2023-12-13T02:26:10.918Z,93333.34
2023-12-13T02:28:37.479Z,93334.78
2023-12-13T02:31:03.975Z,93338.06
2023-12-13T02:33:30.797Z,93321.91
2023-12-13T02:35:58.266Z,93332.66
2023-12-13T02:38:25.967Z,93340.97
2023-12-13T02:40:53.526Z,93337.19
2023-12-13T02:43:21.048Z,93332.50
2023-12-13T02:45:49.717Z,93330.53
2023-12-13T02:48:17.366Z,93321.63
2023-12-13T02:50:44.828Z,93318.78
2023-12-13T02:53:11.334Z,93314.88
2023-12-13T02:55:37.854Z,93314.03
2023-12-13T02:58:04.628Z,93319.94
2023-12-13T03:00:31.293Z,93313.50
2023-12-13T03:02:58.261Z,93308.03
2023-12-13T03:05:26.523Z,93300.78
2023-12-13T03:07:54.205Z,93297.72
2023-12-13T03:10:21.703Z,93297.72
2023-12-13T03:12:49.243Z,93296.09
2023-12-13T03:15:17.845Z,93295.78
2023-12-13T03:17:45.496Z,93285.44
2023-12-13T03:20:13.008Z,93279.19
2023-12-13T03:22:40.636Z,93277.00
2023-12-13T03:25:09.265Z,93271.72
2023-12-13T03:27:36.450Z,93260.22
2023-12-13T03:30:03.302Z,93253.13
2023-12-13T03:32:29.822Z,93251.94
2023-12-13T03:34:56.695Z,93254.19
2023-12-13T03:37:24.242Z,93255.25
2023-12-13T03:39:51.787Z,93253.03
2023-12-13T03:42:18.421Z,93253.47
2023-12-13T03:44:44.958Z,93259.97
2023-12-13T03:47:11.577Z,93254.53
2023-12-13T03:49:39.231Z,93248.84
2023-12-13T03:52:06.744Z,93242.59
2023-12-13T03:54:33.649Z,93248.28
2023-12-13T03:57:00.183Z,93248.09
2023-12-13T03:59:26.678Z,93245.09
2023-12-13T04:01:54.152Z,93234.78
2023-12-13T04:04:21.836Z,93237.84
2023-12-13T04:06:49.265Z,93238.25
2023-12-13T04:09:15.760Z,93235.28
2023-12-13T04:11:42.441Z,93239.31
2023-12-13T04:14:10.046Z,93240.34
2023-12-13T04:16:37.694Z,93237.13
2023-12-13T04:19:05.304Z,93240.19
2023-12-13T04:21:32.841Z,93234.72
2023-12-13T04:24:01.460Z,93230.88
2023-12-13T04:26:29.035Z,93226.84
2023-12-13T04:28:55.751Z,93223.00
2023-12-13T04:31:23.333Z,93226.47
2023-12-13T04:33:50.825Z,93224.47
2023-12-13T04:36:18.396Z,93225.06
2023-12-13T04:38:44.908Z,93223.06
2023-12-13T04:41:11.578Z,93215.16
2023-12-13T04:43:38.239Z,93219.03
2023-12-13T04:46:05.758Z,93218.41
2023-12-13T04:48:33.476Z,93226.94
2023-12-13T04:51:00.965Z,93228.78
2023-12-13T04:53:27.851Z,93223.09
2023-12-13T04:55:54.435Z,93228.16
2023-12-13T04:58:21.033Z,93229.13
2023-12-13T05:00:48.028Z,93223.63
2023-12-13T05:03:14.597Z,93223.78
2023-12-13T05:05:41.509Z,93216.19
2023-12-13T05:08:09.115Z,93216.28
2023-12-13T05:10:36.735Z,93222.72
2023-12-13T05:13:04.257Z,93238.28
2023-12-13T05:15:31.847Z,93232.22
2023-12-13T05:17:58.493Z,93226.16
2023-12-13T05:20:26.081Z,93223.94
2023-12-13T05:22:53.693Z,93222.50
2023-12-13T05:25:20.246Z,93224.91
2023-12-13T05:27:46.764Z,93225.84
2023-12-13T05:30:13.321Z,93224.22
2023-12-13T05:32:41.989Z,93215.13
2023-12-13T05:35:08.908Z,93219.84
2023-12-13T05:37:35.790Z,93223.44
2023-12-13T05:40:02.646Z,93232.44
2023-12-13T05:42:29.363Z,93233.53
2023-12-13T05:44:55.956Z,93237.56
2023-12-13T05:47:22.548Z,93237.72
2023-12-13T05:49:49.152Z,93236.50
2023-12-13T05:52:15.664Z,93225.09
2023-12-13T05:54:42.195Z,93224.78
2023-12-13T05:57:08.901Z,93214.03
2023-12-13T05:59:36.516Z,93217.91
2023-12-13T06:02:03.147Z,93213.09
2023-12-13T06:04:30.043Z,93207.97
2023-12-13T06:06:57.302Z,93208.09
2023-12-13T06:09:24.856Z,93208.72
2023-12-13T06:11:51.342Z,93208.91
2023-12-13T06:14:17.813Z,93214.34
2023-12-13T06:16:44.558Z,93206.28
2023-12-13T06:19:11.101Z,93210.16
2023-12-13T06:21:37.635Z,93200.72
2023-12-13T06:24:04.388Z,93205.41
2023-12-13T06:26:30.967Z,93216.34
2023-12-13T06:28:59.599Z,93207.47
2023-12-13T06:31:26.144Z,93211.53
2023-12-13T06:33:52.658Z,93205.28
2023-12-13T06:36:19.246Z,93212.59
2023-12-13T06:38:45.753Z,93207.16
2023-12-13T06:41:12.496Z,93203.16
2023-12-13T06:43:39.125Z,93196.50
2023-12-13T06:46:05.672Z,93198.97
2023-12-13T06:48:32.226Z,93195.50
2023-12-13T06:50:58.785Z,93196.75
2023-12-13T06:53:25.350Z,93193.94
2023-12-13T06:55:52.070Z,93192.94
2023-12-13T06:58:19.694Z,93195.38
2023-12-13T07:00:46.225Z,93201.06
2023-12-13T07:03:12.800Z,93197.44
2023-12-13T07:05:39.495Z,93197.22
2023-12-13T07:08:06.058Z,93187.34
2023-12-13T07:10:33.833Z,93183.53
2023-12-13T07:13:01.208Z,93183.53
2023-12-13T07:15:27.821Z,93176.66
2023-12-13T07:17:54.345Z,93179.09
2023-12-13T07:20:20.852Z,93176.47
2023-12-13T07:22:48.570Z,93177.25
2023-12-13T07:25:16.180Z,93167.75
2023-12-13T07:27:43.749Z,93174.44
2023-12-13T07:30:11.344Z,93168.47
2023-12-13T07:32:39.261Z,93169.81
2023-12-13T07:35:06.606Z,93164.78
2023-12-13T07:37:34.168Z,93173.16
2023-12-13T07:40:01.703Z,93175.66
2023-12-13T07:42:29.304Z,93180.94
2023-12-13T07:44:55.881Z,93181.19
2023-12-13T07:47:22.393Z,93185.88
2023-12-13T07:49:49.188Z,93180.03
2023-12-13T07:52:16.718Z,93176.63
2023-12-13T07:54:44.248Z,93177.88
2023-12-13T07:57:11.850Z,93180.94
2023-12-13T07:59:39.439Z,93182.34
2023-12-13T08:02:06.024Z,93176.91
2023-12-13T08:04:33.650Z,93173.06
2023-12-13T08:07:00.575Z,93172.28
2023-12-13T08:09:27.080Z,93166.44
2023-12-13T08:11:53.570Z,93157.56
2023-12-13T08:14:21.056Z,93170.69
2023-12-13T08:16:48.607Z,93169.06
2023-12-13T08:19:16.282Z,93179.00
2023-12-13T08:21:43.763Z,93179.38
2023-12-13T08:24:10.370Z,93185.94
2023-12-13T08:26:36.928Z,93185.88
2023-12-13T08:29:07.080Z,93191.50
2023-12-13T08:31:35.470Z,93197.97
2023-12-13T08:34:02.941Z,93197.69
2023-12-13T08:36:30.346Z,93205.78
2023-12-13T08:38:57.266Z,93202.53
2023-12-13T08:41:24.509Z,93204.59
2023-12-13T08:43:51.145Z,93210.91
2023-12-13T08:46:18.763Z,93211.31
2023-12-13T08:48:46.439Z,93221.66
2023-12-13T08:51:13.862Z,93215.78
2023-12-13T08:53:42.454Z,93204.72
2023-12-13T08:56:10.059Z,93211.69
2023-12-13T08:58:37.690Z,93196.38
2023-12-13T09:01:05.282Z,93186.53
2023-12-13T09:03:32.213Z,93181.91
2023-12-13T09:05:59.427Z,93177.28
2023-12-13T09:08:27.041Z,93170.31
2023-12-13T09:10:54.001Z,93172.56
2023-12-13T09:13:20.599Z,93168.56
2023-12-13T09:15:47.159Z,93166.84
2023-12-13T09:18:14.452Z,93178.19
2023-12-13T09:20:42.255Z,93178.19
2023-12-13T09:23:09.557Z,93183.91
2023-12-13T09:25:37.169Z,93186.56
2023-12-13T09:28:04.743Z,93183.66
2023-12-13T09:30:31.409Z,93174.81
2023-12-13T09:32:58.987Z,93182.59
2023-12-13T09:35:26.580Z,93185.44
2023-12-13T09:37:54.129Z,93174.38
2023-12-13T09:40:21.734Z,93184.13
2023-12-13T09:42:49.406Z,93177.69
2023-12-13T09:45:16.862Z,93182.56
2023-12-13T09:47:43.439Z,93184.44
2023-12-13T09:50:10.069Z,93182.44
2023-12-13T09:52:38.044Z,93186.34
2023-12-13T09:55:06.214Z,93188.63
2023-12-13T09:57:33.826Z,93179.41
2023-12-13T10:00:00.415Z,93184.34
2023-12-13T10:02:27.039Z,93178.91
2023-12-13T10:04:54.662Z,93167.25
2023-12-13T10:07:22.435Z,93168.78
2023-12-13T10:09:49.830Z,93168.31
2023-12-13T10:12:16.331Z,93161.91
2023-12-13T10:14:43.989Z,93159.69
2023-12-13T10:17:17.227Z,93151.59
2023-12-13T10:19:47.301Z,93153.44
2023-12-13T10:22:16.241Z,93156.25
2023-12-13T10:24:43.423Z,93154.66
2023-12-13T10:27:09.933Z,93157.47
2023-12-13T10:29:36.474Z,93158.31
2023-12-13T10:32:03.022Z,93159.34
2023-12-13T10:34:29.585Z,93147.97
2023-12-13T10:36:56.398Z,93138.84
2023-12-13T10:39:23.978Z,93138.66
2023-12-13T10:41:50.490Z,93139.06
2023-12-13T10:44:17.065Z,93138.25
2023-12-13T10:46:43.661Z,93146.34
2023-12-13T10:49:10.180Z,93153.28
2023-12-13T10:51:36.681Z,93162.38
2023-12-13T10:54:03.542Z,93154.66
2023-12-13T10:56:30.145Z,93158.72
2023-12-13T10:58:56.838Z,93151.03
2023-12-13T11:01:24.509Z,93146.78
2023-12-13T11:03:51.973Z,93158.53
2023-12-13T11:06:18.632Z,93154.88
2023-12-13T11:08:46.143Z,93134.41
2023-12-13T11:11:14.749Z,93125.47
2023-12-13T11:13:42.358Z,93124.66
2023-12-13T11:16:09.937Z,93118.59
2023-12-13T11:18:37.542Z,93110.09
2023-12-13T11:21:05.132Z,93124.69
2023-12-13T11:23:32.838Z,93125.28
2023-12-13T11:26:00.454Z,93132.78
2023-12-13T11:28:27.011Z,93134.78
2023-12-13T11:30:54.591Z,93134.09
2023-12-13T11:33:23.435Z,93135.06
2023-12-13T11:35:50.776Z,93127.06
2023-12-13T11:38:19.717Z,93131.56
2023-12-13T11:40:47.039Z,93138.38
2023-12-13T11:43:15.918Z,93150.88
2023-12-13T11:45:43.154Z,93147.63
2023-12-13T11:48:10.805Z,93149.44
2023-12-13T11:50:37.464Z,93142.53
2023-12-13T11:53:04.019Z,93139.50
2023-12-13T11:55:31.534Z,93132.78
2023-12-13T11:57:59.117Z,93135.50
2023-12-13T12:00:26.717Z,93127.31
2023-12-13T12:02:55.378Z,93119.41
2023-12-13T12:05:23.025Z,93113.88
2023-12-13T12:07:50.650Z,93104.97
2023-12-13T12:10:18.288Z,93101.50
2023-12-13T12:12:45.880Z,93104.19
2023-12-13T12:15:12.611Z,93109.25
2023-12-13T12:17:40.379Z,93112.38
2023-12-13T12:20:08.764Z,93123.53
2023-12-13T12:22:35.615Z,93116.41
2023-12-13T12:25:02.261Z,93118.38
2023-12-13T12:27:28.904Z,93110.81
2023-12-13T12:29:57.131Z,93111.47
2023-12-13T12:32:24.874Z,93115.25
2023-12-13T12:34:53.333Z,93121.13
2023-12-13T12:37:20.567Z,93114.94
2023-12-13T12:39:47.504Z,93108.09
2023-12-13T12:42:15.147Z,93102.22
2023-12-13T12:44:42.753Z,93104.31
2023-12-13T12:47:10.418Z,93099.50
2023-12-13T12:49:37.040Z,93106.13
2023-12-13T12:52:03.573Z,93103.84
2023-12-13T12:54:30.096Z,93098.72
2023-12-13T12:56:56.580Z,93093.81
2023-12-13T12:59:23.675Z,93093.13
2023-12-13T13:01:50.977Z,93086.50
2023-12-13T13:04:18.502Z,93088.59
2023-12-13T13:06:46.042Z,93091.97
2023-12-13T13:09:12.633Z,93092.31
2023-12-13T13:11:39.660Z,93092.13
2023-12-13T13:14:08.226Z,93093.44
2023-12-13T13:16:35.126Z,93094.81
2023-12-13T13:19:03.899Z,93103.38
2023-12-13T13:21:31.552Z,93089.13
2023-12-13T13:23:59.154Z,93091.69
2023-12-13T13:26:25.846Z,93088.97
2023-12-13T13:28:53.375Z,93088.78
2023-12-13T13:31:20.969Z,93079.31
2023-12-13T13:33:47.610Z,93084.75
2023-12-13T13:36:14.188Z,93089.41
2023-12-13T13:38:40.670Z,93090.41
2023-12-13T13:41:07.185Z,93088.72
2023-12-13T13:43:33.954Z,93073.94
2023-12-13T13:46:01.485Z,93085.81
2023-12-13T13:48:28.124Z,93093.44
2023-12-13T13:50:55.688Z,93088.47
2023-12-13T13:53:22.237Z,93088.66
2023-12-13T13:55:48.822Z,93091.28
2023-12-13T13:58:15.404Z,93093.91
2023-12-13T14:00:41.926Z,93096.81
2023-12-13T14:03:08.687Z,93098.22
2023-12-13T14:05:37.314Z,93100.09
2023-12-13T14:08:04.850Z,93094.84
2023-12-13T14:10:32.443Z,93098.06
2023-12-13T14:12:59.021Z,93106.75
2023-12-13T14:15:26.687Z,93115.84
2023-12-13T14:17:54.277Z,93119.94
2023-12-13T14:20:23.293Z,93124.13
2023-12-13T14:22:50.433Z,93124.13
2023-12-13T14:25:17.964Z,93128.34
2023-12-13T14:27:46.562Z,93131.38
2023-12-13T14:30:14.237Z,93140.25
2023-12-13T14:32:41.771Z,93143.50
2023-12-13T14:35:09.435Z,93142.63
2023-12-13T14:37:37.085Z,93150.50
2023-12-13T14:40:04.558Z,93156.34
2023-12-13T14:42:31.163Z,93161.09
2023-12-13T14:44:57.720Z,93179.81
2023-12-13T14:47:24.238Z,93175.38
2023-12-13T14:49:50.824Z,93181.03
2023-12-13T14:52:17.508Z,93181.31
2023-12-13T14:54:45.106Z,93190.56
2023-12-13T14:57:12.689Z,93190.47
2023-12-13T14:59:39.275Z,93192.69
2023-12-13T15:02:05.897Z,93187.53
2023-12-13T15:04:33.489Z,93191.34
2023-12-13T15:07:03.469Z,93190.69
2023-12-13T15:09:31.678Z,93197.13
2023-12-13T15:11:59.242Z,93194.31
2023-12-13T15:14:25.796Z,93184.22
2023-12-13T15:16:52.350Z,93182.03
2023-12-13T15:19:18.996Z,93180.84
2023-12-13T15:21:45.494Z,93189.16
2023-12-13T15:24:11.987Z,93178.28
2023-12-13T15:26:38.718Z,93189.50
2023-12-13T15:29:05.568Z,93195.72
2023-12-13T15:31:34.673Z,93195.00
2023-12-13T15:34:01.660Z,93199.06
2023-12-13T15:36:29.135Z,93210.00
2023-12-13T15:38:55.768Z,93212.72
2023-12-13T15:41:23.360Z,93223.63
2023-12-13T15:43:51.043Z,93223.91
2023-12-13T15:46:18.591Z,93228.16
2023-12-13T15:48:46.147Z,93232.41
2023-12-13T15:51:13.701Z,93228.41
2023-12-13T15:53:40.222Z,93231.22
2023-12-13T15:56:06.864Z,93229.59
2023-12-13T15:58:34.527Z,93237.41
2023-12-13T16:01:02.094Z,93246.66
2023-12-13T16:03:28.696Z,93252.81
2023-12-13T16:05:57.083Z,93249.13
2023-12-13T16:08:24.482Z,93255.28
2023-12-13T16:10:51.102Z,93265.50
2023-12-13T16:13:18.065Z,93263.19
2023-12-13T16:15:46.657Z,93259.56
2023-12-13T16:18:13.318Z,93260.81
2023-12-13T16:20:40.836Z,93264.16
2023-12-13T16:23:07.460Z,93261.91
2023-12-13T16:25:35.045Z,93261.56
2023-12-13T16:28:01.860Z,93265.28
2023-12-13T16:30:28.430Z,93269.97
2023-12-13T16:32:55.005Z,93270.59
2023-12-13T16:35:21.551Z,93275.03
2023-12-13T16:37:48.094Z,93278.75
2023-12-13T16:40:15.565Z,93278.75
2023-12-13T16:42:42.172Z,93274.97
2023-12-13T16:45:08.672Z,93284.75
2023-12-13T16:47:35.210Z,93294.56
2023-12-13T16:50:01.979Z,93292.50
2023-12-13T16:52:29.548Z,93297.41
2023-12-13T16:54:56.063Z,93291.34
2023-12-13T16:57:22.576Z,93297.69
2023-12-13T16:59:49.065Z,93297.47
2023-12-13T17:02:15.916Z,93291.41
2023-12-13T17:04:43.158Z,93282.56
2023-12-13T17:07:11.041Z,93282.88
2023-12-13T17:09:38.639Z,93282.16
2023-12-13T17:12:06.246Z,93274.63
2023-12-13T17:14:33.800Z,93279.53
2023-12-13T17:17:01.496Z,93279.16
2023-12-13T17:19:29.159Z,93285.06
2023-12-13T17:21:56.668Z,93288.13
2023-12-13T17:24:24.181Z,93289.59
2023-12-13T17:26:51.132Z,93289.22
2023-12-13T17:29:26.455Z,93294.13
2023-12-13T17:32:01.172Z,93296.09
2023-12-13T17:34:28.673Z,93303.97
2023-12-13T17:36:56.234Z,93298.38
2023-12-13T17:39:23.816Z,93300.00
2023-12-13T17:41:50.418Z,93304.25
2023-12-13T17:44:19.779Z,93311.13
2023-12-13T17:46:48.641Z,93315.75
2023-12-13T17:49:16.327Z,93314.66
2023-12-13T17:51:43.797Z,93318.69
2023-12-13T17:54:10.384Z,93317.97
2023-12-13T17:56:37.989Z,93311.09
2023-12-13T17:59:05.638Z,93311.22
2023-12-13T18:01:33.181Z,93315.25
2023-12-13T18:04:01.793Z,93319.53
2023-12-13T18:06:29.385Z,93323.13
2023-12-13T18:08:55.897Z,93325.22
2023-12-13T18:11:22.530Z,93329.13
2023-12-13T18:13:49.157Z,93336.47
2023-12-13T18:16:16.744Z,93335.94
2023-12-13T18:18:44.414Z,93340.38
2023-12-13T18:21:11.906Z,93347.91
2023-12-13T18:23:39.537Z,93346.06
2023-12-13T18:26:07.175Z,93343.44
2023-12-13T18:28:35.728Z,93352.31
2023-12-13T18:31:02.465Z,93350.53
2023-12-13T18:33:29.143Z,93351.97
2023-12-13T18:35:56.455Z,93353.16
2023-12-13T18:38:24.050Z,93355.13
2023-12-13T18:40:51.711Z,93357.75
2023-12-13T18:43:19.237Z,93362.16
2023-12-13T18:45:45.831Z,93360.66
2023-12-13T18:48:12.484Z,93363.50
2023-12-13T18:50:40.027Z,93361.41
2023-12-13T18:53:06.691Z,93363.22
2023-12-13T18:55:34.281Z,93359.13
2023-12-13T18:58:01.893Z,93363.72
2023-12-13T19:00:28.605Z,93369.16
2023-12-13T19:02:57.230Z,93370.13
2023-12-13T19:05:23.885Z,93366.25
2023-12-13T19:07:52.440Z,93375.00
2023-12-13T19:10:20.090Z,93374.84
2023-12-13T19:12:47.619Z,93367.63
2023-12-13T19:15:15.192Z,93364.81
2023-12-13T19:17:44.357Z,93373.50
2023-12-13T19:20:12.471Z,93378.13
2023-12-13T19:22:39.993Z,93379.75
2023-12-13T19:25:07.556Z,93377.31
2023-12-13T19:27:35.498Z,93382.88
2023-12-13T19:30:02.743Z,93377.19
2023-12-13T19:32:29.388Z,93379.53
2023-12-13T19:34:56.464Z,93378.06
2023-12-13T19:37:23.066Z,93389.06
2023-12-13T19:39:49.586Z,93390.69
2023-12-13T19:42:16.732Z,93397.09
2023-12-13T19:44:44.345Z,93396.59
2023-12-13T19:47:10.952Z,93398.69
2023-12-13T19:49:38.554Z,93400.13
2023-12-13T19:52:06.141Z,93413.34
2023-12-13T19:54:33.737Z,93410.41
2023-12-13T19:57:00.327Z,93413.78
2023-12-13T19:59:26.959Z,93414.91
2023-12-13T20:01:54.609Z,93409.94
2023-12-13T20:04:22.136Z,93414.47
2023-12-13T20:06:48.636Z,93414.75
2023-12-13T20:09:15.146Z,93421.28
2023-12-13T20:11:41.960Z,93418.47
2023-12-13T20:14:09.568Z,93427.66
2023-12-13T20:16:37.199Z,93432.69
2023-12-13T20:19:04.858Z,93440.56
2023-12-13T20:21:32.411Z,93446.63
2023-12-13T20:24:01.035Z,93451.06
2023-12-13T20:26:28.512Z,93450.06
2023-12-13T20:28:55.093Z,93455.75
2023-12-13T20:31:22.698Z,93451.06
2023-12-13T20:33:49.300Z,93451.06
2023-12-13T20:36:15.856Z,93451.97
2023-12-13T20:38:42.392Z,93457.69
2023-12-13T20:41:10.234Z,93445.94
2023-12-13T20:43:37.217Z,93448.28
2023-12-13T20:46:03.893Z,93455.16
2023-12-13T20:48:32.933Z,93465.13
2023-12-13T20:51:03.403Z,93463.16
2023-12-13T20:53:29.895Z,93470.81
2023-12-13T20:55:56.961Z,93473.75
2023-12-13T20:58:24.622Z,93475.66
2023-12-13T21:00:52.283Z,93480.09
2023-12-13T21:03:19.228Z,93477.78
2023-12-13T21:05:45.788Z,93478.22
2023-12-13T21:08:12.332Z,93478.06
2023-12-13T21:10:40.643Z,93477.06
2023-12-13T21:13:08.260Z,93474.88
2023-12-13T21:15:35.830Z,93489.09
2023-12-13T21:18:03.585Z,93491.38
2023-12-13T21:20:32.118Z,93497.44
2023-12-13T21:23:02.100Z,93509.56
2023-12-13T21:25:29.378Z,93515.00
2023-12-13T21:27:56.838Z,93517.16
2023-12-13T21:30:24.518Z,93523.75
2023-12-13T21:32:51.194Z,93530.41
2023-12-13T21:35:17.869Z,93528.09
2023-12-13T21:37:44.494Z,93544.88
2023-12-13T21:40:11.014Z,93537.44
2023-12-13T21:42:38.504Z,93538.97
2023-12-13T21:45:05.024Z,93540.78
2023-12-13T21:47:31.705Z,93545.50
2023-12-13T21:49:58.771Z,93545.78
2023-12-13T21:52:25.285Z,93548.91
2023-12-13T21:54:52.004Z,93545.09
2023-12-13T21:57:19.012Z,93556.91
2023-12-13T21:59:46.723Z,93560.00
2023-12-13T22:02:14.335Z,93569.50
2023-12-13T22:04:41.927Z,93568.69
2023-12-13T22:07:08.498Z,93571.13
2023-12-13T22:09:34.994Z,93581.44
2023-12-13T22:12:01.522Z,93578.56
2023-12-13T22:14:28.008Z,93581.03
2023-12-13T22:16:54.545Z,93580.53
2023-12-13T22:19:21.094Z,93581.47
2023-12-13T22:21:47.998Z,93579.16
2023-12-13T22:24:15.632Z,93584.72
2023-12-13T22:26:42.579Z,93582.75
2023-12-13T22:29:09.104Z,93583.53
2023-12-13T22:31:35.717Z,93582.75
2023-12-13T22:34:02.337Z,93592.91
2023-12-13T22:36:28.920Z,93592.28
2023-12-13T22:38:55.447Z,93597.69
2023-12-13T22:41:23.919Z,93607.69
2023-12-13T22:43:52.616Z,93602.78
2023-12-13T22:46:20.095Z,93606.06
2023-12-13T22:48:46.693Z,93605.09
2023-12-13T22:51:14.310Z,93609.50
2023-12-13T22:53:41.179Z,93619.84
2023-12-13T22:56:07.706Z,93622.31
2023-12-13T22:58:34.259Z,93619.69
2023-12-13T23:01:01.924Z,93619.47
2023-12-13T23:03:30.866Z,93616.88
2023-12-13T23:05:58.113Z,93623.75
2023-12-13T23:08:25.662Z,93630.47
2023-12-13T23:10:53.281Z,93627.03
2023-12-13T23:13:20.874Z,93639.16
2023-12-13T23:15:48.425Z,93632.09
2023-12-13T23:18:15.048Z,93634.53
2023-12-13T23:20:42.638Z,93625.38
2023-12-13T23:23:09.321Z,93632.22
2023-12-13T23:25:36.838Z,93640.91
2023-12-13T23:28:04.439Z,93652.88
2023-12-13T23:30:32.082Z,93638.59
2023-12-13T23:32:59.646Z,93651.56
2023-12-13T23:35:27.338Z,93655.00
2023-12-13T23:37:54.829Z,93651.22
2023-12-13T23:40:22.396Z,93655.19
2023-12-13T23:42:48.973Z,93659.78
2023-12-13T23:45:15.572Z,93660.13
2023-12-13T23:47:42.217Z,93657.66
2023-12-13T23:50:09.989Z,93666.66
2023-12-13T23:52:37.655Z,93666.16
2023-12-13T23:55:04.985Z,93672.22
2023-12-13T23:57:32.547Z,93672.69
